createdAt,value
2019-03-13T00:01:24.080Z,52.24
2019-03-13T00:03:53.234Z,51.53
2019-03-13T00:06:22.251Z,51.59
2019-03-13T00:08:51.110Z,51.86
2019-03-13T00:11:20.250Z,51.15
2019-03-13T00:13:49.189Z,50.67
2019-03-13T00:16:18.292Z,51.42
2019-03-13T00:18:47.251Z,50.82
2019-03-13T00:21:17.191Z,52.05
2019-03-13T00:23:46.150Z,50.90
2019-03-13T00:26:15.119Z,50.83
2019-03-13T00:28:44.000Z,50.52
2019-03-13T00:31:13.051Z,50.07
2019-03-13T00:33:41.891Z,50.40
2019-03-13T00:36:10.751Z,49.86
2019-03-13T00:38:39.679Z,49.86
2019-03-13T00:41:08.569Z,49.68
2019-03-13T00:43:37.417Z,50.08
2019-03-13T00:46:06.434Z,49.71
2019-03-13T00:48:35.311Z,49.57
2019-03-13T00:51:04.231Z,49.43
2019-03-13T00:53:33.133Z,49.68
2019-03-13T00:56:01.993Z,49.90
2019-03-13T00:58:30.851Z,49.53
2019-03-13T01:01:07.335Z,48.99
2019-03-13T01:03:37.772Z,48.46
2019-03-13T01:06:23.501Z,48.36
2019-03-13T01:08:52.447Z,48.52
2019-03-13T01:11:21.286Z,48.45
2019-03-13T01:13:50.182Z,48.10
2019-03-13T01:16:19.054Z,47.91
2019-03-13T01:18:47.909Z,47.55
2019-03-13T01:21:16.768Z,47.74
2019-03-13T01:23:45.622Z,47.32
2019-03-13T01:26:14.494Z,47.52
2019-03-13T01:28:43.345Z,47.02
2019-03-13T01:31:32.180Z,46.77
2019-03-13T01:34:05.338Z,47.37
2019-03-13T01:36:34.174Z,46.97
2019-03-13T01:39:03.059Z,47.58
2019-03-13T01:41:31.939Z,47.00
2019-03-13T01:44:00.800Z,46.87
2019-03-13T01:46:29.639Z,46.89
2019-03-13T01:48:58.515Z,47.07
2019-03-13T01:51:27.363Z,47.31
2019-03-13T01:53:56.243Z,47.70
2019-03-13T01:56:25.098Z,47.22
2019-03-13T01:58:54.007Z,46.74
2019-03-13T02:01:22.859Z,45.98
2019-03-13T02:03:51.709Z,45.90
2019-03-13T02:06:20.585Z,45.62
2019-03-13T02:08:49.419Z,45.55
2019-03-13T02:11:18.294Z,45.52
2019-03-13T02:13:47.123Z,45.30
2019-03-13T02:16:16.096Z,45.20
2019-03-13T02:18:45.053Z,45.08
2019-03-13T02:21:13.960Z,45.30
2019-03-13T02:23:42.794Z,45.06
2019-03-13T02:26:11.734Z,44.74
2019-03-13T02:28:40.615Z,44.75
2019-03-13T02:31:09.462Z,44.51
2019-03-13T02:33:38.351Z,43.95
2019-03-13T02:36:07.184Z,43.54
2019-03-13T02:38:36.056Z,43.76
2019-03-13T02:41:04.905Z,43.19
2019-03-13T02:43:33.848Z,43.07
2019-03-13T02:46:02.675Z,43.24
2019-03-13T02:48:31.533Z,43.40
2019-03-13T02:51:00.432Z,43.12
2019-03-13T02:53:29.370Z,43.06
2019-03-13T02:55:58.294Z,43.18
2019-03-13T02:58:27.134Z,43.37
2019-03-13T03:01:09.824Z,42.81
2019-03-13T03:03:40.214Z,42.87
2019-03-13T03:06:09.097Z,43.15
2019-03-13T03:08:37.979Z,43.73
2019-03-13T03:11:06.850Z,43.60
2019-03-13T03:13:35.720Z,43.63
2019-03-13T03:16:04.665Z,43.58
2019-03-13T03:18:33.695Z,43.88
2019-03-13T03:21:02.529Z,44.21
2019-03-13T03:23:31.403Z,43.81
2019-03-13T03:26:00.339Z,43.99
2019-03-13T03:28:29.256Z,44.39
2019-03-13T03:30:58.181Z,44.32
2019-03-13T03:33:27.139Z,44.42
2019-03-13T03:35:56.093Z,44.27
2019-03-13T03:38:24.931Z,44.69
2019-03-13T03:40:53.870Z,44.32
2019-03-13T03:43:38.747Z,44.50
2019-03-13T03:45:53.335Z,44.58
2019-03-13T03:48:22.268Z,44.67
2019-03-13T03:50:51.145Z,44.72
2019-03-13T03:53:19.980Z,45.30
2019-03-13T03:55:49.086Z,45.35
2019-03-13T03:58:17.999Z,45.24
2019-03-13T04:00:46.944Z,45.33
2019-03-13T04:03:15.816Z,45.48
2019-03-13T04:05:44.645Z,45.01
2019-03-13T04:08:13.555Z,45.04
2019-03-13T04:10:42.379Z,44.54
2019-03-13T04:13:11.269Z,44.32
2019-03-13T04:15:40.328Z,44.29
2019-03-13T04:18:09.157Z,44.38
2019-03-13T04:20:38.080Z,44.87
2019-03-13T04:23:06.927Z,44.70
2019-03-13T04:25:35.814Z,44.99
2019-03-13T04:28:04.908Z,44.74
2019-03-13T04:30:33.730Z,45.08
2019-03-13T04:33:02.664Z,45.19
2019-03-13T04:35:31.654Z,45.18
2019-03-13T04:38:00.489Z,45.90
2019-03-13T04:40:29.372Z,45.43
2019-03-13T04:42:58.250Z,45.10
2019-03-13T04:45:27.275Z,45.15
2019-03-13T04:47:56.119Z,45.42
2019-03-13T04:50:25.027Z,45.20
2019-03-13T04:52:53.859Z,45.42
2019-03-13T04:55:22.888Z,45.35
2019-03-13T04:57:51.762Z,45.25
2019-03-13T05:00:21.409Z,45.67
2019-03-13T05:02:50.294Z,45.56
2019-03-13T05:05:37.223Z,45.89
2019-03-13T05:08:06.217Z,45.60
2019-03-13T05:10:35.096Z,45.26
2019-03-13T05:13:04.105Z,45.26
2019-03-13T05:15:33.094Z,45.28
2019-03-13T05:18:02.004Z,45.30
2019-03-13T05:20:30.912Z,45.43
2019-03-13T05:22:59.754Z,44.94
2019-03-13T05:25:28.649Z,44.91
2019-03-13T05:27:57.489Z,45.09
2019-03-13T05:30:26.375Z,45.32
2019-03-13T05:32:55.209Z,45.21
2019-03-13T05:35:24.101Z,45.27
2019-03-13T05:37:52.939Z,45.94
2019-03-13T05:40:22.072Z,45.48
2019-03-13T05:42:50.920Z,45.65
2019-03-13T05:45:19.748Z,45.42
2019-03-13T05:47:48.646Z,45.91
2019-03-13T05:50:17.674Z,45.68
2019-03-13T05:52:46.550Z,45.76
2019-03-13T05:55:15.404Z,45.86
2019-03-13T05:57:44.274Z,45.99
2019-03-13T06:00:15.779Z,45.99
2019-03-13T06:02:47.738Z,45.89
2019-03-13T06:05:15.282Z,46.11
2019-03-13T06:07:44.126Z,46.45
2019-03-13T06:10:14.500Z,46.13
2019-03-13T06:12:43.357Z,46.17
2019-03-13T06:15:14.419Z,46.45
2019-03-13T06:17:43.339Z,46.14
2019-03-13T06:20:18.262Z,46.47
2019-03-13T06:22:47.314Z,46.27
2019-03-13T06:25:16.246Z,45.93
2019-03-13T06:27:46.701Z,45.68
2019-03-13T06:30:17.479Z,46.40
2019-03-13T06:32:46.312Z,45.97
2019-03-13T06:35:15.473Z,46.36
2019-03-13T06:37:44.409Z,46.14
2019-03-13T06:40:20.981Z,45.90
2019-03-13T06:42:49.819Z,45.99
2019-03-13T06:45:18.814Z,46.42
2019-03-13T06:47:47.658Z,46.50
2019-03-13T06:50:20.976Z,46.47
2019-03-13T06:52:49.875Z,46.43
2019-03-13T06:55:18.719Z,46.38
2019-03-13T06:57:47.592Z,46.51
2019-03-13T07:00:40.570Z,46.36
2019-03-13T07:03:19.625Z,46.52
2019-03-13T07:05:53.039Z,47.12
2019-03-13T07:08:32.290Z,46.95
2019-03-13T07:11:17.820Z,47.76
2019-03-13T07:13:57.034Z,47.45
2019-03-13T07:16:43.622Z,47.24
2019-03-13T07:19:14.094Z,47.23
2019-03-13T07:22:00.335Z,47.24
2019-03-13T07:24:36.634Z,46.94
2019-03-13T07:27:16.132Z,47.20
2019-03-13T07:29:52.427Z,48.30
2019-03-13T07:32:37.929Z,47.99
2019-03-13T07:35:09.424Z,48.62
2019-03-13T07:37:45.884Z,49.50
2019-03-13T07:40:25.525Z,49.05
2019-03-13T07:42:55.935Z,49.10
2019-03-13T07:45:26.435Z,49.31
2019-03-13T07:47:56.860Z,49.19
2019-03-13T07:50:27.287Z,49.83
2019-03-13T07:52:57.737Z,49.23
2019-03-13T07:55:43.555Z,48.67
2019-03-13T07:58:23.218Z,49.19
2019-03-13T08:00:56.754Z,48.21
2019-03-13T08:03:33.291Z,49.20
2019-03-13T08:06:18.809Z,49.65
2019-03-13T08:08:49.277Z,49.41
2019-03-13T08:11:19.699Z,49.64
2019-03-13T08:14:08.554Z,49.07
2019-03-13T08:16:47.914Z,49.56
2019-03-13T08:19:33.188Z,49.28
2019-03-13T08:22:06.303Z,49.48
2019-03-13T08:24:36.728Z,48.90
2019-03-13T08:27:07.190Z,48.75
2019-03-13T08:29:40.581Z,48.77
2019-03-13T08:32:11.059Z,48.92
2019-03-13T08:34:53.627Z,48.77
2019-03-13T08:37:29.714Z,49.15
2019-03-13T08:40:03.137Z,49.84
2019-03-13T08:42:39.476Z,49.95
2019-03-13T08:45:12.974Z,50.44
2019-03-13T08:47:43.474Z,50.71
2019-03-13T08:50:30.228Z,51.09
2019-03-13T08:53:18.900Z,51.10
2019-03-13T08:55:52.275Z,50.59
2019-03-13T08:58:34.913Z,50.57
2019-03-13T09:01:14.162Z,50.36
2019-03-13T09:04:01.097Z,50.09
2019-03-13T09:06:48.029Z,49.83
2019-03-13T09:09:27.498Z,50.42
2019-03-13T09:11:57.930Z,50.49
2019-03-13T09:14:34.502Z,50.92
2019-03-13T09:17:21.105Z,51.27
2019-03-13T09:20:00.437Z,50.81
2019-03-13T09:22:33.838Z,51.35
2019-03-13T09:25:20.769Z,51.46
2019-03-13T09:27:51.181Z,51.51
2019-03-13T09:30:24.679Z,51.84
2019-03-13T09:32:58.212Z,51.33
2019-03-13T09:35:31.807Z,51.20
2019-03-13T09:38:11.550Z,50.15
2019-03-13T09:40:58.682Z,47.87
2019-03-13T09:43:32.231Z,45.76
2019-03-13T09:46:09.018Z,43.66
2019-03-13T09:48:39.436Z,43.88
2019-03-13T09:51:25.217Z,43.22
2019-03-13T09:54:10.696Z,41.77
2019-03-13T09:56:41.182Z,43.21
2019-03-13T09:59:17.441Z,42.86
2019-03-13T10:01:48.036Z,41.87
2019-03-13T10:04:24.427Z,41.59
2019-03-13T10:06:54.901Z,44.10
2019-03-13T10:09:28.297Z,45.15
2019-03-13T10:12:01.808Z,43.75
2019-03-13T10:14:38.018Z,41.82
2019-03-13T10:17:11.495Z,41.96
2019-03-13T10:19:43.254Z,42.60
2019-03-13T10:22:16.836Z,42.40
2019-03-13T10:24:56.286Z,44.98
2019-03-13T10:27:29.837Z,44.37
2019-03-13T10:30:06.341Z,42.98
2019-03-13T10:32:45.902Z,41.91
2019-03-13T10:35:16.406Z,41.14
2019-03-13T10:37:49.881Z,42.46
2019-03-13T10:40:20.293Z,44.94
2019-03-13T10:42:50.697Z,45.40
2019-03-13T10:45:27.127Z,43.03
2019-03-13T10:48:03.381Z,42.96
2019-03-13T10:50:36.536Z,41.75
2019-03-13T10:53:12.748Z,39.85
2019-03-13T10:55:43.153Z,40.43
2019-03-13T10:58:25.901Z,42.61
2019-03-13T11:00:56.332Z,40.42
2019-03-13T11:03:32.716Z,40.14
2019-03-13T11:06:19.389Z,38.81
2019-03-13T11:08:49.883Z,39.77
2019-03-13T11:11:26.206Z,38.76
2019-03-13T11:14:15.881Z,38.75
2019-03-13T11:16:53.849Z,38.43
2019-03-13T11:19:24.357Z,38.36
2019-03-13T11:21:54.772Z,39.07
2019-03-13T11:24:28.118Z,38.52
2019-03-13T11:26:58.541Z,39.27
2019-03-13T11:29:46.995Z,38.12
2019-03-13T11:32:32.534Z,37.52
2019-03-13T11:35:18.185Z,39.48
2019-03-13T11:37:51.220Z,39.92
2019-03-13T11:40:24.431Z,38.10
2019-03-13T11:42:54.859Z,38.21
2019-03-13T11:45:34.449Z,37.42
2019-03-13T11:48:21.310Z,37.65
2019-03-13T11:51:03.718Z,36.71
2019-03-13T11:53:40.171Z,35.35
2019-03-13T11:56:26.902Z,34.18
2019-03-13T11:59:03.333Z,33.25
2019-03-13T12:01:45.243Z,33.75
2019-03-13T12:04:14.254Z,36.21
2019-03-13T12:06:53.377Z,35.50
2019-03-13T12:09:36.109Z,36.09
2019-03-13T12:12:15.815Z,35.24
2019-03-13T12:14:46.228Z,35.68
2019-03-13T12:17:32.983Z,34.56
2019-03-13T12:20:03.384Z,34.44
2019-03-13T12:22:49.274Z,37.03
2019-03-13T12:25:35.781Z,36.63
2019-03-13T12:28:09.109Z,36.58
2019-03-13T12:30:48.619Z,37.44
2019-03-13T12:33:21.910Z,39.80
2019-03-13T12:36:08.594Z,39.89
2019-03-13T12:38:39.110Z,38.30
2019-03-13T12:41:18.634Z,37.74
2019-03-13T12:43:51.467Z,36.23
2019-03-13T12:46:21.254Z,37.31
2019-03-13T12:49:04.084Z,36.48
2019-03-13T12:51:34.554Z,37.40
2019-03-13T12:54:14.438Z,37.52
2019-03-13T12:57:01.158Z,36.71
2019-03-13T12:59:40.720Z,34.47
2019-03-13T13:02:11.159Z,35.83
2019-03-13T13:04:50.704Z,36.88
2019-03-13T13:07:24.432Z,34.63
2019-03-13T13:10:06.914Z,34.34
2019-03-13T13:12:40.129Z,35.73
2019-03-13T13:15:27.554Z,34.16
2019-03-13T13:18:10.395Z,33.16
2019-03-13T13:20:39.305Z,33.08
2019-03-13T13:23:08.254Z,33.45
2019-03-13T13:25:37.103Z,33.31
2019-03-13T13:28:06.489Z,32.92
2019-03-13T13:30:35.334Z,32.42
2019-03-13T13:33:04.229Z,33.68
2019-03-13T13:35:33.068Z,32.77
2019-03-13T13:38:01.909Z,32.06
2019-03-13T13:40:30.830Z,32.07
2019-03-13T13:42:59.674Z,32.35
2019-03-13T13:45:34.434Z,31.79
2019-03-13T13:48:03.333Z,31.15
2019-03-13T13:50:32.181Z,31.13
2019-03-13T13:53:01.239Z,30.03
2019-03-13T13:55:30.067Z,31.11
2019-03-13T13:57:58.996Z,30.99
2019-03-13T14:00:27.907Z,30.38
2019-03-13T14:02:56.740Z,30.33
2019-03-13T14:05:25.639Z,31.96
2019-03-13T14:07:54.489Z,31.07
2019-03-13T14:10:23.383Z,30.91
2019-03-13T14:12:52.229Z,28.91
2019-03-13T14:15:21.131Z,32.21
2019-03-13T14:17:49.977Z,32.34
2019-03-13T14:20:18.872Z,33.81
2019-03-13T14:22:47.756Z,32.89
2019-03-13T14:25:16.595Z,33.92
2019-03-13T14:27:45.481Z,33.75
2019-03-13T14:30:19.197Z,34.31
2019-03-13T14:32:48.274Z,34.27
2019-03-13T14:35:17.122Z,35.02
2019-03-13T14:37:46.120Z,34.70
2019-03-13T14:40:16.887Z,35.05
2019-03-13T14:42:45.721Z,35.42
2019-03-13T14:45:19.217Z,34.18
2019-03-13T14:47:48.157Z,35.58
2019-03-13T14:50:23.708Z,35.15
2019-03-13T14:52:52.540Z,36.52
2019-03-13T14:55:21.364Z,35.51
2019-03-13T14:57:50.332Z,35.02
2019-03-13T15:00:23.650Z,35.06
2019-03-13T15:02:52.630Z,35.42
2019-03-13T15:05:21.572Z,35.81
2019-03-13T15:07:50.630Z,36.39
2019-03-13T15:10:23.022Z,36.36
2019-03-13T15:12:51.999Z,35.57
2019-03-13T15:15:22.821Z,35.03
2019-03-13T15:17:53.286Z,35.21
2019-03-13T15:20:28.573Z,34.23
2019-03-13T15:22:57.732Z,34.48
2019-03-13T15:25:26.727Z,34.47
2019-03-13T15:27:55.777Z,33.66
2019-03-13T15:30:32.420Z,35.06
2019-03-13T15:33:01.466Z,36.45
2019-03-13T15:35:30.573Z,35.75
2019-03-13T15:37:59.557Z,36.92
2019-03-13T15:40:28.523Z,38.43
2019-03-13T15:42:57.566Z,40.42
2019-03-13T15:45:32.209Z,40.58
2019-03-13T15:48:01.366Z,42.56
2019-03-13T15:50:30.458Z,42.79
2019-03-13T15:52:59.499Z,42.77
2019-03-13T15:55:28.541Z,43.61
2019-03-13T15:57:57.503Z,43.53
2019-03-13T16:00:27.649Z,44.00
2019-03-13T16:02:56.731Z,43.49
2019-03-13T16:05:25.953Z,43.79
2019-03-13T16:07:54.938Z,43.47
2019-03-13T16:10:23.990Z,43.81
2019-03-13T16:12:54.679Z,43.50
2019-03-13T16:15:35.297Z,44.22
2019-03-13T16:18:04.720Z,44.10
2019-03-13T16:20:33.753Z,43.82
2019-03-13T16:23:03.380Z,43.96
2019-03-13T16:25:32.654Z,44.92
2019-03-13T16:28:01.711Z,44.42
2019-03-13T16:30:32.493Z,45.04
2019-03-13T16:33:01.529Z,44.05
2019-03-13T16:35:30.583Z,44.90
2019-03-13T16:37:59.552Z,46.12
2019-03-13T16:40:31.609Z,46.88
2019-03-13T16:42:59.470Z,48.79
2019-03-13T16:45:28.502Z,54.30
2019-03-13T16:47:57.608Z,56.14
2019-03-13T16:50:31.266Z,55.17
2019-03-13T16:53:01.570Z,56.21
2019-03-13T16:55:31.367Z,55.59
2019-03-13T16:58:00.497Z,56.21
2019-03-13T17:00:32.661Z,56.50
2019-03-13T17:03:03.747Z,57.12
2019-03-13T17:05:34.198Z,56.84
2019-03-13T17:08:03.322Z,56.75
2019-03-13T17:10:32.412Z,55.99
2019-03-13T17:13:01.476Z,55.87
2019-03-13T17:15:30.553Z,54.93
2019-03-13T17:17:59.601Z,54.77
2019-03-13T17:20:39.763Z,53.83
2019-03-13T17:23:08.783Z,53.41
2019-03-13T17:25:37.822Z,52.32
2019-03-13T17:28:06.924Z,52.38
2019-03-13T17:30:35.958Z,51.96
2019-03-13T17:33:11.057Z,51.94
2019-03-13T17:35:40.116Z,51.93
2019-03-13T17:38:09.092Z,51.59
2019-03-13T17:40:38.727Z,51.69
2019-03-13T17:43:08.198Z,51.79
2019-03-13T17:45:40.241Z,51.98
2019-03-13T17:48:09.334Z,52.35
2019-03-13T17:50:38.422Z,52.58
2019-03-13T17:53:07.653Z,52.71
2019-03-13T17:55:36.908Z,52.85
2019-03-13T17:58:05.931Z,52.80
2019-03-13T18:00:40.997Z,52.97
2019-03-13T18:03:10.144Z,52.92
2019-03-13T18:05:39.278Z,53.13
2019-03-13T18:08:08.346Z,53.17
2019-03-13T18:10:37.418Z,53.09
2019-03-13T18:13:06.461Z,53.10
2019-03-13T18:15:35.555Z,53.35
2019-03-13T18:18:04.696Z,53.42
2019-03-13T18:20:33.812Z,53.64
2019-03-13T18:23:02.916Z,53.75
2019-03-13T18:25:32.085Z,54.06
2019-03-13T18:28:01.148Z,54.35
2019-03-13T18:30:31.674Z,54.70
2019-03-13T18:33:00.758Z,55.00
2019-03-13T18:35:29.823Z,55.26
2019-03-13T18:37:58.946Z,55.55
2019-03-13T18:40:28.041Z,55.75
2019-03-13T18:42:57.213Z,55.79
2019-03-13T18:45:30.693Z,55.43
2019-03-13T18:47:59.873Z,55.31
2019-03-13T18:50:29.356Z,55.02
2019-03-13T18:52:58.432Z,55.04
2019-03-13T18:55:38.561Z,55.49
2019-03-13T18:58:07.661Z,55.75
2019-03-13T19:00:37.677Z,55.72
2019-03-13T19:03:10.581Z,55.50
2019-03-13T19:05:41.477Z,55.38
2019-03-13T19:08:10.653Z,55.28
2019-03-13T19:10:39.867Z,55.10
2019-03-13T19:13:09.190Z,55.18
2019-03-13T19:15:40.171Z,55.05
2019-03-13T19:18:09.126Z,54.48
2019-03-13T19:20:38.396Z,54.46
2019-03-13T19:23:07.616Z,53.42
2019-03-13T19:25:36.791Z,53.50
2019-03-13T19:28:06.093Z,53.32
2019-03-13T19:30:37.992Z,52.90
2019-03-13T19:33:07.530Z,52.87
2019-03-13T19:35:36.808Z,52.28
2019-03-13T19:38:13.661Z,52.27
2019-03-13T19:40:42.988Z,52.01
2019-03-13T19:43:12.353Z,51.82
2019-03-13T19:45:46.660Z,52.00
2019-03-13T19:48:15.962Z,51.86
2019-03-13T19:50:45.221Z,52.33
2019-03-13T19:53:14.436Z,52.41
2019-03-13T19:55:43.728Z,52.79
2019-03-13T19:58:13.003Z,53.00
2019-03-13T20:00:46.443Z,53.51
2019-03-13T20:03:20.944Z,53.64
2019-03-13T20:05:50.039Z,53.82
2019-03-13T20:08:22.049Z,54.01
2019-03-13T20:10:51.985Z,54.27
2019-03-13T20:13:22.650Z,54.63
2019-03-13T20:15:53.293Z,54.53
2019-03-13T20:18:22.488Z,54.74
2019-03-13T20:20:51.631Z,54.67
2019-03-13T20:23:22.347Z,54.32
2019-03-13T20:25:52.738Z,54.13
2019-03-13T20:28:21.885Z,53.98
2019-03-13T20:30:52.632Z,53.94
2019-03-13T20:33:21.782Z,53.58
2019-03-13T20:35:51.118Z,53.29
2019-03-13T20:38:21.754Z,53.21
2019-03-13T20:40:53.183Z,53.24
2019-03-13T20:43:22.440Z,53.31
2019-03-13T20:45:56.173Z,53.41
2019-03-13T20:48:26.912Z,53.45
2019-03-13T20:50:57.731Z,53.69
2019-03-13T20:53:27.046Z,53.86
2019-03-13T20:55:58.886Z,53.76
2019-03-13T20:58:29.845Z,53.94
2019-03-13T21:01:00.462Z,54.23
2019-03-13T21:03:29.770Z,54.09
2019-03-13T21:06:00.685Z,54.33
2019-03-13T21:08:31.067Z,54.25
2019-03-13T21:11:01.465Z,54.33
2019-03-13T21:13:40.878Z,54.59
2019-03-13T21:16:10.141Z,54.75
2019-03-13T21:18:40.561Z,54.90
2019-03-13T21:21:11.364Z,54.69
2019-03-13T21:23:40.670Z,55.10
2019-03-13T21:26:11.189Z,55.16
2019-03-13T21:28:41.193Z,55.22
2019-03-13T21:31:10.457Z,55.34
2019-03-13T21:33:40.697Z,55.39
2019-03-13T21:36:09.951Z,55.50
2019-03-13T21:38:40.923Z,55.46
2019-03-13T21:41:11.743Z,55.42
2019-03-13T21:43:40.856Z,55.59
2019-03-13T21:46:09.961Z,55.66
2019-03-13T21:48:39.191Z,55.73
2019-03-13T21:51:08.286Z,55.65
2019-03-13T21:53:37.436Z,55.86
2019-03-13T21:56:06.643Z,55.69
2019-03-13T21:58:35.754Z,55.73
2019-03-13T22:01:04.830Z,55.95
2019-03-13T22:03:33.933Z,56.03
2019-03-13T22:06:02.983Z,56.17
2019-03-13T22:08:32.044Z,56.38
2019-03-13T22:11:01.159Z,56.22
2019-03-13T22:13:30.444Z,56.43
2019-03-13T22:15:59.623Z,56.48
2019-03-13T22:18:28.566Z,56.51
2019-03-13T22:20:57.468Z,56.60
2019-03-13T22:23:26.389Z,56.73
2019-03-13T22:25:55.307Z,56.86
2019-03-13T22:28:24.176Z,56.83
2019-03-13T22:30:53.011Z,56.64
2019-03-13T22:33:21.894Z,56.54
2019-03-13T22:35:50.718Z,56.71
2019-03-13T22:38:19.703Z,56.43
2019-03-13T22:40:48.531Z,56.34
2019-03-13T22:43:17.443Z,56.12
2019-03-13T22:45:46.340Z,55.83
2019-03-13T22:48:15.175Z,55.87
2019-03-13T22:50:44.102Z,55.92
2019-03-13T22:53:12.983Z,55.88
2019-03-13T22:55:41.844Z,55.84
2019-03-13T22:58:10.725Z,55.43
2019-03-13T23:00:53.024Z,55.29
2019-03-13T23:03:23.613Z,55.34
2019-03-13T23:05:52.783Z,55.28
2019-03-13T23:08:21.626Z,55.52
2019-03-13T23:10:50.631Z,55.29
2019-03-13T23:13:19.467Z,55.45
2019-03-13T23:15:48.292Z,55.38
2019-03-13T23:18:18.529Z,55.28
2019-03-13T23:20:47.677Z,55.11
2019-03-13T23:23:16.653Z,55.26
2019-03-13T23:25:45.578Z,55.28
2019-03-13T23:28:14.450Z,55.48
2019-03-13T23:30:43.287Z,55.63
2019-03-13T23:33:12.166Z,55.71
2019-03-13T23:35:41.002Z,55.87
2019-03-13T23:38:09.909Z,55.96
2019-03-13T23:40:38.806Z,56.26
2019-03-13T23:43:07.698Z,56.27
2019-03-13T23:45:36.592Z,56.25
2019-03-13T23:48:05.428Z,56.66
2019-03-13T23:50:34.301Z,56.56
2019-03-13T23:53:03.143Z,56.43
2019-03-13T23:55:32.013Z,57.00
2019-03-13T23:58:00.854Z,56.98
